Time;durP1;ratioP1;P1;durP2;ratioP2;P2;SDS_P1;SDS_P2;PMS_P1;PMS_P2;Temp;Humidity;BMP_temperature;BMP_pressure;BME280_temperature;BME280_humidity;BME280_pressure;Samples;Min_cycle;Max_cycle;Signal;HPM_P1;HPM_P2
2023/06/29 00:00:28;;;;;;;4.37;1.90;;;;;;;19.67;55.92;98163.91;4395192;32;20177;-77
2023/06/29 00:02:55;;;;;;;4.18;1.80;;;;;;;20.04;54.72;98164.50;4395570;32;20163;-77
2023/06/29 00:05:22;;;;;;;5.30;1.70;;;;;;;19.79;55.34;98162.16;4395682;32;20094;-77
2023/06/29 00:07:49;;;;;;;3.85;1.70;;;;;;;19.56;56.58;98166.53;4394533;32;20153;-77
2023/06/29 00:10:16;;;;;;;5.10;2.10;;;;;;;20.00;55.25;98163.09;4395434;32;20082;-77
2023/06/29 00:12:43;;;;;;;5.72;2.12;;;;;;;20.03;55.24;98167.25;4395323;32;20466;-77
2023/06/29 00:15:10;;;;;;;4.43;2.05;;;;;;;20.11;54.87;98163.06;4395499;32;20098;-77
2023/06/29 00:17:37;;;;;;;4.40;1.80;;;;;;;19.91;55.22;98162.03;4395360;32;20114;-78
2023/06/29 00:20:09;;;;;;;5.45;2.05;;;;;;;20.41;53.96;98162.34;4394640;32;20449;-77
2023/06/29 00:22:40;;;;;;;4.70;2.00;;;;;;;19.64;56.31;98167.62;4395609;32;20149;-77
2023/06/29 00:25:09;;;;;;;3.37;1.80;;;;;;;19.22;57.87;98160.41;4395723;32;20140;-77
2023/06/29 00:27:36;;;;;;;5.43;2.10;;;;;;;19.45;56.99;98163.87;4395215;32;20110;-77
2023/06/29 00:30:03;;;;;;;4.18;2.00;;;;;;;19.47;57.06;98162.00;4393668;32;20110;-77
2023/06/29 00:32:30;;;;;;;3.45;2.00;;;;;;;19.20;58.11;98165.78;4394197;32;20149;-77
2023/06/29 00:34:57;;;;;;;4.43;2.10;;;;;;;19.60;57.04;98157.53;4395127;32;20226;-77
2023/06/29 00:37:24;;;;;;;5.25;2.05;;;;;;;19.62;56.87;98155.59;4381811;32;20168;-77
2023/06/29 00:40:37;;;;;;;4.40;2.12;;;;;;;19.91;55.78;98154.16;4395360;32;20117;-77
2023/06/29 00:43:05;;;;;;;5.25;2.12;;;;;;;19.80;55.81;98158.59;4394754;32;20138;-77
2023/06/29 00:45:32;;;;;;;4.57;1.90;;;;;;;19.83;55.83;98166.19;4395367;32;20114;-77
2023/06/29 00:48:00;;;;;;;4.75;2.03;;;;;;;19.72;56.18;98161.78;4395163;32;20097;-77
2023/06/29 00:50:27;;;;;;;5.72;2.22;;;;;;;19.36;56.99;98160.22;4395302;32;20087;-77
2023/06/29 00:52:54;;;;;;;6.20;2.00;;;;;;;19.80;56.12;98158.59;4394372;32;20094;-77
2023/06/29 00:55:21;;;;;;;6.32;2.30;;;;;;;19.81;56.23;98163.69;4394248;32;20094;-77
2023/06/29 00:57:48;;;;;;;3.75;2.05;;;;;;;19.97;55.54;98157.22;4380782;32;20162;-77
2023/06/29 01:00:15;;;;;;;4.90;2.47;;;;;;;19.92;56.02;98157.63;4395161;32;20156;-77
2023/06/29 01:02:42;;;;;;;4.93;2.20;;;;;;;19.43;57.32;98161.38;4394521;32;20109;-77
2023/06/29 01:05:10;;;;;;;5.25;2.03;;;;;;;19.69;56.10;98159.44;4394138;32;20113;-77
2023/06/29 01:07:58;;;;;;;5.55;2.28;;;;;;;19.38;57.37;98163.53;4380739;32;20117;-77
2023/06/29 01:10:27;;;;;;;4.87;2.30;;;;;;;20.20;54.73;98159.72;4381529;32;20094;-77
2023/06/29 01:12:54;;;;;;;5.05;2.47;;;;;;;19.90;55.50;98151.66;4381709;32;20108;-77
2023/06/29 01:15:22;;;;;;;5.50;2.03;;;;;;;20.19;54.54;98154.56;4381654;32;20099;-77
2023/06/29 01:17:52;;;;;;;4.40;2.20;;;;;;;20.02;55.03;98157.72;4380499;32;20132;-77
2023/06/29 01:20:19;;;;;;;5.20;2.10;;;;;;;20.59;53.91;98156.63;4394682;32;20181;-77
2023/06/29 01:22:55;;;;;;;5.87;2.12;;;;;;;20.61;53.65;98152.91;4382022;32;20130;-77
2023/06/29 01:25:24;;;;;;;4.93;1.95;;;;;;;20.11;54.71;98149.13;4395309;32;20112;-77
2023/06/29 01:27:51;;;;;;;4.72;1.98;;;;;;;20.63;53.57;98152.78;4380801;32;20169;-77
2023/06/29 01:30:18;;;;;;;5.25;2.28;;;;;;;19.96;55.84;98155.56;4394607;32;20162;-77
2023/06/29 01:32:45;;;;;;;4.68;2.20;;;;;;;19.46;57.31;98145.47;4395060;32;20104;-77
2023/06/29 01:35:12;;;;;;;5.37;2.33;;;;;;;19.72;56.52;98151.31;4395205;32;20086;-77
2023/06/29 01:37:50;;;;;;;5.53;2.22;;;;;;;19.86;56.08;98142.38;4394269;32;20153;-77
2023/06/29 01:40:19;;;;;;;7.30;2.20;;;;;;;19.31;58.60;98142.25;4395009;32;20159;-77
2023/06/29 01:42:47;;;;;;;8.05;2.40;;;;;;;19.26;58.76;98138.31;4381532;32;20086;-77
2023/06/29 01:45:17;;;;;;;6.28;2.20;;;;;;;19.25;58.96;98145.34;4394645;32;20112;-77
2023/06/29 01:47:44;;;;;;;4.80;2.00;;;;;;;18.90;60.59;98142.75;4381159;32;20120;-77
2023/06/29 01:50:11;;;;;;;4.65;2.17;;;;;;;19.71;58.23;98144.44;4394390;32;20102;-77
2023/06/29 01:52:38;;;;;;;4.60;2.20;;;;;;;19.80;57.91;98141.09;4394595;32;20109;-77
2023/06/29 01:55:09;;;;;;;3.72;1.90;;;;;;;19.40;59.22;98135.47;4394901;32;20102;-77
2023/06/29 01:57:37;;;;;;;4.72;2.20;;;;;;;20.33;55.91;98138.59;4394971;32;20109;-77
2023/06/29 02:00:05;;;;;;;4.15;2.03;;;;;;;19.72;57.57;98135.63;4393653;32;20484;-77
2023/06/29 02:02:32;;;;;;;4.60;1.98;;;;;;;20.24;56.48;98131.47;4394391;32;20126;-77
2023/06/29 02:04:59;;;;;;;4.70;2.05;;;;;;;20.51;55.28;98134.47;4394648;32;20109;-77
2023/06/29 02:07:26;;;;;;;6.05;2.20;;;;;;;20.41;55.07;98130.09;4394937;32;20098;-77
2023/06/29 02:09:53;;;;;;;5.25;2.40;;;;;;;20.36;55.43;98133.09;4394115;32;20098;-77
2023/06/29 02:12:20;;;;;;;4.80;2.17;;;;;;;19.35;58.31;98127.13;4394437;32;20153;-77
2023/06/29 02:14:47;;;;;;;4.90;2.17;;;;;;;20.59;54.69;98130.41;4394737;32;20098;-77
2023/06/29 02:17:14;;;;;;;4.70;2.10;;;;;;;19.90;56.71;98134.19;4394686;32;20115;-77
2023/06/29 02:20:17;;;;;;;5.68;2.22;;;;;;;20.44;55.28;98133.34;4393997;32;20109;-77
2023/06/29 02:22:44;;;;;;;6.00;2.25;;;;;;;20.42;55.47;98129.16;4393271;32;20445;-77
2023/06/29 02:25:11;;;;;;;7.12;2.28;;;;;;;19.32;57.80;98130.81;4394736;32;20149;-77
2023/06/29 02:27:38;;;;;;;5.00;2.28;;;;;;;19.24;59.02;98133.19;4394237;32;20145;-77
2023/06/29 02:30:06;;;;;;;5.90;2.30;;;;;;;20.30;56.91;98133.56;4394266;32;20438;-77
2023/06/29 02:32:33;;;;;;;6.20;2.33;;;;;;;20.38;55.95;98132.97;4392480;32;20535;-77
2023/06/29 02:35:00;;;;;;;5.20;2.15;;;;;;;19.55;58.19;98130.81;4393636;32;20094;-77
2023/06/29 02:37:26;;;;;;;5.30;2.00;;;;;;;19.62;57.76;98138.12;4394525;32;20400;-77
2023/06/29 02:39:53;;;;;;;5.12;2.37;;;;;;;19.87;57.64;98138.81;4393980;32;20162;-77
2023/06/29 02:42:22;;;;;;;4.80;2.10;;;;;;;19.68;58.46;98142.06;4393809;32;20148;-77
2023/06/29 02:44:48;;;;;;;4.80;2.00;;;;;;;20.20;57.06;98138.75;4394469;32;20106;-77
2023/06/29 02:47:15;;;;;;;6.55;2.40;;;;;;;19.68;58.60;98138.59;4394108;32;20161;-77
2023/06/29 02:49:42;;;;;;;5.05;2.25;;;;;;;20.45;56.11;98142.88;4394124;32;20082;-77
2023/06/29 02:52:09;;;;;;;5.62;2.30;;;;;;;20.37;56.13;98140.00;4394179;32;20099;-77
2023/06/29 02:54:36;;;;;;;6.00;2.70;;;;;;;20.28;56.35;98139.91;4393342;32;20158;-77
2023/06/29 02:57:03;;;;;;;6.28;2.10;;;;;;;20.01;57.39;98138.56;4393318;32;20094;-77
2023/06/29 02:59:30;;;;;;;5.15;2.10;;;;;;;20.44;56.01;98130.72;4394105;32;20109;-77
2023/06/29 03:01:57;;;;;;;4.25;2.17;;;;;;;19.92;58.04;98144.53;4393678;32;20122;-77
2023/06/29 03:04:24;;;;;;;5.12;2.60;;;;;;;20.25;57.57;98146.22;4380541;32;20501;-77
2023/06/29 03:06:51;;;;;;;4.68;2.20;;;;;;;19.97;58.24;98152.00;4394047;32;20122;-77
2023/06/29 03:09:19;;;;;;;5.20;2.50;;;;;;;19.55;59.85;98147.38;4393274;32;20095;-77
2023/06/29 03:11:46;;;;;;;7.22;2.53;;;;;;;20.38;57.06;98151.31;4393924;32;20401;-77
2023/06/29 03:14:12;;;;;;;5.20;2.45;;;;;;;20.38;56.64;98148.69;4394128;32;20146;-77
2023/06/29 03:16:39;;;;;;;4.70;2.20;;;;;;;20.92;55.52;98145.12;4393604;32;20445;-77
2023/06/29 03:19:06;;;;;;;4.80;2.30;;;;;;;21.30;54.15;98141.97;4393057;32;20153;-77
2023/06/29 03:21:33;;;;;;;9.00;2.75;;;;;;;20.99;54.88;98143.69;4393971;32;20448;-77
2023/06/29 03:24:00;;;;;;;5.32;2.12;;;;;;;20.84;55.57;98142.31;4393193;32;20086;-77
2023/06/29 03:26:27;;;;;;;4.47;2.30;;;;;;;20.45;56.37;98135.00;4393775;32;20475;-77
2023/06/29 03:28:54;;;;;;;5.00;2.40;;;;;;;20.47;56.61;98143.56;4393561;32;20185;-77
2023/06/29 03:31:21;;;;;;;5.93;2.45;;;;;;;20.85;55.36;98138.75;4393712;32;20108;-77
2023/06/29 03:33:48;;;;;;;5.05;2.17;;;;;;;21.02;54.55;98144.25;4393718;32;20495;-77
2023/06/29 03:36:15;;;;;;;5.78;2.45;;;;;;;20.87;55.10;98140.28;4393466;32;20595;-77
2023/06/29 03:38:42;;;;;;;6.80;2.28;;;;;;;20.87;55.39;98145.53;4393555;32;20108;-77
2023/06/29 03:41:09;;;;;;;5.47;2.35;;;;;;;20.89;55.06;98145.41;4380479;32;20104;-77
2023/06/29 03:43:36;;;;;;;5.15;2.40;;;;;;;20.40;57.02;98138.91;4396178;32;20146;-77
2023/06/29 03:46:03;;;;;;;6.65;2.42;;;;;;;20.75;55.64;98152.62;4395852;32;20106;-77
2023/06/29 03:48:30;;;;;;;7.03;2.55;;;;;;;20.48;56.76;98142.59;4395677;32;20102;-78
2023/06/29 03:50:57;;;;;;;7.18;2.40;;;;;;;20.75;56.37;98142.13;4395423;32;20074;-77
2023/06/29 03:53:24;;;;;;;5.47;2.40;;;;;;;21.31;54.68;98148.87;4395821;32;20142;-77
2023/06/29 03:55:51;;;;;;;5.87;2.17;;;;;;;21.54;53.50;98145.09;4395877;32;20091;-77
2023/06/29 03:58:18;;;;;;;5.47;2.40;;;;;;;21.67;52.92;98148.31;4395288;32;20445;-77
2023/06/29 04:00:45;;;;;;;6.50;2.28;;;;;;;21.62;52.77;98153.16;4381949;32;20154;-77
2023/06/29 04:03:12;;;;;;;7.78;2.28;;;;;;;21.50;53.46;98150.75;4395616;32;20416;-77
2023/06/29 04:05:39;;;;;;;4.75;2.50;;;;;;;21.87;52.18;98151.03;4381797;32;20090;-77
2023/06/29 04:08:07;;;;;;;8.40;2.58;;;;;;;21.80;52.59;98148.13;4395750;32;20087;-77
2023/06/29 04:10:34;;;;;;;5.78;2.78;;;;;;;22.64;50.50;98159.03;4395421;32;20477;-77
2023/06/29 04:13:01;;;;;;;5.97;2.33;;;;;;;22.61;50.29;98156.69;4395421;32;20110;-77
2023/06/29 04:15:30;;;;;;;5.53;2.25;;;;;;;23.44;48.48;98155.22;4395593;32;20105;-77
2023/06/29 04:17:57;;;;;;;6.45;2.30;;;;;;;23.71;47.81;98159.72;4395434;32;20106;-77
2023/06/29 04:20:24;;;;;;;6.20;2.17;;;;;;;24.12;46.69;98161.03;4395211;32;20129;-78
2023/06/29 04:22:51;;;;;;;6.32;2.53;;;;;;;24.70;45.48;98159.84;4395572;32;20091;-78
2023/06/29 04:25:18;;;;;;;5.10;2.20;;;;;;;24.63;45.52;98158.78;4395256;32;20102;-77
2023/06/29 04:27:45;;;;;;;5.53;2.05;;;;;;;24.81;45.61;98160.41;4395515;32;20181;-77
2023/06/29 04:30:12;;;;;;;5.75;2.10;;;;;;;25.39;44.25;98161.69;4395290;32;20078;-78
2023/06/29 04:32:39;;;;;;;5.80;2.33;;;;;;;25.80;42.97;98164.56;4395308;32;20448;-78
2023/06/29 04:35:08;;;;;;;5.93;2.20;;;;;;;26.55;42.01;98170.75;4381825;32;20114;-77
2023/06/29 04:37:42;;;;;;;5.22;2.40;;;;;;;27.54;40.26;98167.06;4395425;32;20346;-78
2023/06/29 04:40:10;;;;;;;5.20;1.83;;;;;;;28.01;38.86;98175.06;4394907;32;20087;-78
2023/06/29 04:42:47;;;;;;;4.85;1.83;;;;;;;28.74;38.01;98174.66;4395447;32;20144;-78
2023/06/29 04:45:19;;;;;;;4.60;2.03;;;;;;;30.13;36.20;98179.47;4395557;32;20463;-78
2023/06/29 04:47:47;;;;;;;5.90;2.20;;;;;;;31.38;33.33;98184.41;4395262;32;20120;-79
2023/06/29 04:50:14;;;;;;;4.72;2.20;;;;;;;32.31;31.63;98175.06;4395126;32;20079;-79
2023/06/29 04:52:42;;;;;;;5.57;2.00;;;;;;;32.77;30.61;98174.34;4395490;32;20493;-79
2023/06/29 04:55:10;;;;;;;9.57;2.25;;;;;;;32.72;29.75;98171.47;4394152;32;20166;-79
2023/06/29 04:57:37;;;;;;;5.45;1.85;;;;;;;32.17;30.62;98168.84;4395363;32;20159;-79
2023/06/29 05:00:10;;;;;;;4.55;2.30;;;;;;;32.14;30.25;98166.56;4395174;32;20109;-79
2023/06/29 05:02:38;;;;;;;5.28;2.10;;;;;;;31.49;31.08;98170.53;4395932;32;20086;-80
2023/06/29 05:05:05;;;;;;;4.55;1.70;;;;;;;30.47;32.64;98165.50;4395247;32;20095;-80
2023/06/29 05:07:32;;;;;;;3.67;1.98;;;;;;;28.27;34.76;98158.00;4394988;32;20090;-80
2023/06/29 05:09:59;;;;;;;4.37;2.12;;;;;;;29.54;33.40;98160.03;4395013;32;20078;-80
2023/06/29 05:12:26;;;;;;;4.35;2.10;;;;;;;29.91;33.66;98169.75;4395211;32;20116;-80
2023/06/29 05:14:53;;;;;;;5.37;2.10;;;;;;;29.56;32.78;98166.84;4394866;32;20432;-80
2023/06/29 05:17:20;;;;;;;7.65;1.98;;;;;;;29.92;32.16;98166.91;4395215;32;20094;-80
2023/06/29 05:19:47;;;;;;;5.37;2.17;;;;;;;28.60;34.71;98167.44;4394838;32;20075;-80
2023/06/29 05:22:14;;;;;;;5.82;2.08;;;;;;;29.25;33.83;98168.78;4394857;32;20114;-80
2023/06/29 05:24:41;;;;;;;5.57;2.20;;;;;;;28.63;33.72;98166.28;4395182;32;20139;-80
2023/06/29 05:27:08;;;;;;;5.70;2.10;;;;;;;29.17;33.52;98163.56;4395137;32;20406;-80
2023/06/29 05:29:37;;;;;;;5.93;2.10;;;;;;;29.08;33.05;98168.94;4394565;32;20098;-80
2023/06/29 05:32:04;;;;;;;8.43;2.08;;;;;;;28.52;34.21;98168.34;4395123;32;20170;-80
2023/06/29 05:34:31;;;;;;;5.43;2.10;;;;;;;29.04;33.74;98167.66;4395097;32;20099;-80
2023/06/29 05:36:58;;;;;;;4.35;2.10;;;;;;;29.85;32.53;98173.97;4394633;32;20164;-80
2023/06/29 05:39:27;;;;;;;6.85;2.00;;;;;;;29.51;33.07;98174.53;4394892;32;20082;-80
2023/06/29 05:41:54;;;;;;;6.07;1.92;;;;;;;29.31;33.30;98171.53;4395139;32;20106;-80
2023/06/29 05:44:21;;;;;;;5.25;2.15;;;;;;;29.24;33.68;98178.59;4394664;32;20097;-80
2023/06/29 05:46:47;;;;;;;4.03;1.90;;;;;;;30.79;30.86;98180.19;4395022;32;20433;-80
2023/06/29 05:49:14;;;;;;;6.50;1.90;;;;;;;31.49;30.55;98186.53;4394664;32;20105;-80
2023/06/29 05:51:42;;;;;;;6.25;1.90;;;;;;;32.36;29.41;98177.97;4395072;32;20124;-80
2023/06/29 05:54:09;;;;;;;4.47;2.05;;;;;;;31.68;29.29;98179.66;4394938;32;20099;-80
2023/06/29 05:56:36;;;;;;;4.43;1.85;;;;;;;31.73;29.21;98168.41;4394576;32;20587;-81
2023/06/29 05:59:03;;;;;;;4.00;1.77;;;;;;;32.12;28.71;98171.28;4395605;32;20088;-80
2023/06/29 06:01:30;;;;;;;5.72;1.80;;;;;;;31.13;30.02;98173.31;4395704;32;20144;-80
2023/06/29 06:03:58;;;;;;;4.60;1.80;;;;;;;31.68;28.82;98171.66;4394446;32;20152;-78
2023/06/29 06:06:25;;;;;;;42.47;14.90;;;;;;;30.87;29.53;98173.91;4394629;32;20090;-79
2023/06/29 06:08:52;;;;;;;14.43;3.65;;;;;;;30.65;29.79;98177.59;4394620;32;20134;-79
2023/06/29 06:11:19;;;;;;;5.80;2.05;;;;;;;30.62;30.14;98175.28;4395043;32;20495;-81
2023/06/29 06:13:46;;;;;;;6.43;1.90;;;;;;;30.16;30.18;98171.09;4394744;32;20125;-81
2023/06/29 06:16:15;;;;;;;6.12;2.03;;;;;;;30.51;29.83;98177.41;4394636;32;20125;-82
2023/06/29 06:18:42;;;;;;;4.37;1.98;;;;;;;31.47;29.40;98174.38;4380316;32;20086;-83
2023/06/29 06:21:09;;;;;;;7.87;2.22;;;;;;;29.77;30.62;98167.91;4394639;32;20090;-83
2023/06/29 06:23:36;;;;;;;5.72;2.03;;;;;;;29.33;31.81;98169.50;4394452;32;20424;-83
2023/06/29 06:26:26;;;;;;;6.68;2.37;;;;;;;29.05;31.85;98165.81;4394294;32;20429;-83
2023/06/29 06:29:14;;;;;;;5.70;2.10;;;;;;;28.77;32.57;98168.16;4389797;32;20079;-83
2023/06/29 06:31:41;;;;;;;3.75;2.00;;;;;;;29.29;31.90;98176.22;4380849;32;20185;-82
2023/06/29 06:34:08;;;;;;;4.12;1.77;;;;;;;29.06;31.91;98184.22;4394490;32;20117;-84
2023/06/29 06:36:35;;;;;;;5.60;2.00;;;;;;;29.36;32.23;98185.13;4394396;32;20090;-84
2023/06/29 06:39:02;;;;;;;4.53;1.87;;;;;;;29.64;32.20;98188.00;4394054;32;20146;-84
2023/06/29 06:41:28;;;;;;;6.85;2.35;;;;;;;28.56;33.14;98183.91;4394553;32;20124;-84
2023/06/29 06:43:56;;;;;;;5.25;2.05;;;;;;;27.93;34.28;98183.06;4396262;32;20150;-82
2023/06/29 06:46:23;;;;;;;4.37;2.10;;;;;;;27.44;35.89;98191.12;4380549;32;20098;-81
2023/06/29 06:48:51;;;;;;;6.65;2.20;;;;;;;27.84;34.51;98186.72;4393902;32;20095;-82
2023/06/29 06:51:18;;;;;;;4.20;2.12;;;;;;;28.29;34.32;98190.56;4394246;32;20441;-83
2023/06/29 06:53:45;;;;;;;4.80;1.95;;;;;;;28.65;34.49;98190.81;4396321;32;20138;-83
2023/06/29 06:56:12;;;;;;;4.72;2.15;;;;;;;28.85;34.06;98192.00;4394698;32;20786;-78
2023/06/29 06:58:39;;;;;;;4.37;1.77;;;;;;;28.22;33.71;98185.91;4380296;32;20098;-78
2023/06/29 07:01:07;;;;;;;3.37;1.83;;;;;;;27.77;34.54;98191.91;4393810;32;20138;-79
2023/06/29 07:03:34;;;;;;;8.13;2.30;;;;;;;27.88;34.85;98180.09;4393936;32;20102;-79
2023/06/29 07:06:01;;;;;;;4.97;2.08;;;;;;;28.20;35.34;98187.09;4394119;32;20098;-79
2023/06/29 07:08:28;;;;;;;5.37;2.00;;;;;;;28.46;33.48;98184.97;4393415;32;20162;-80
2023/06/29 07:10:58;;;;;;;5.45;1.95;;;;;;;29.31;32.79;98184.00;4393975;32;20113;-80
2023/06/29 07:13:26;;;;;;;6.22;1.90;;;;;;;29.48;31.30;98174.88;4380140;32;20114;-80
2023/06/29 07:15:56;;;;;;;6.47;1.98;;;;;;;28.93;33.81;98173.38;4393738;32;20205;-80
2023/06/29 07:18:23;;;;;;;5.18;2.00;;;;;;;29.83;31.19;98172.50;4394818;32;20434;-80
2023/06/29 07:20:50;;;;;;;4.22;1.80;;;;;;;29.71;31.93;98166.00;4395396;32;20133;-80
2023/06/29 07:23:19;;;;;;;4.15;1.70;;;;;;;29.59;32.09;98176.28;4396232;32;20112;-79
2023/06/29 07:25:50;;;;;;;5.53;2.00;;;;;;;29.02;32.53;98174.13;4382883;32;20095;-79
2023/06/29 07:28:17;;;;;;;7.40;2.10;;;;;;;28.81;33.10;98175.59;4396138;32;20150;-79
2023/06/29 07:30:44;;;;;;;4.57;2.20;;;;;;;29.78;31.91;98170.41;4396317;32;20605;-79
2023/06/29 07:33:11;;;;;;;3.83;1.70;;;;;;;29.67;32.45;98182.34;4397894;32;20066;-79
2023/06/29 07:35:38;;;;;;;7.30;2.08;;;;;;;28.42;32.78;98169.59;4398508;32;20152;-79
2023/06/29 07:38:05;;;;;;;5.68;2.15;;;;;;;27.58;35.03;98169.22;4396827;32;20082;-78
2023/06/29 07:40:32;;;;;;;3.90;2.00;;;;;;;27.99;35.13;98176.25;4395614;32;20086;-79
2023/06/29 07:42:59;;;;;;;8.10;2.00;;;;;;;28.38;34.59;98174.38;4395317;32;20150;-78
2023/06/29 07:45:26;;;;;;;7.65;2.35;;;;;;;28.77;33.63;98181.44;4396002;32;20100;-79
2023/06/29 07:47:53;;;;;;;5.28;1.90;;;;;;;28.88;34.48;98182.84;4396415;32;20087;-78
2023/06/29 07:50:20;;;;;;;3.95;1.92;;;;;;;28.72;33.91;98170.53;4395212;32;20086;-78
2023/06/29 07:52:47;;;;;;;6.80;2.37;;;;;;;28.11;34.61;98173.03;4395790;32;20094;-79
2023/06/29 07:55:14;;;;;;;6.82;2.00;;;;;;;27.31;35.47;98178.38;4395781;32;20457;-79
2023/06/29 07:57:41;;;;;;;3.72;1.75;;;;;;;27.64;34.47;98173.00;4398061;32;20082;-80
2023/06/29 08:00:12;;;;;;;5.35;1.90;;;;;;;27.18;35.35;98177.25;4404655;32;20459;-82
2023/06/29 08:02:40;;;;;;;4.35;1.98;;;;;;;27.57;34.81;98191.44;4406837;32;20090;-81
2023/06/29 08:05:08;;;;;;;4.82;1.90;;;;;;;26.92;36.15;98180.06;4405185;32;20090;-81
2023/06/29 08:07:37;;;;;;;5.45;1.73;;;;;;;26.94;35.01;98178.91;4404812;32;20062;-81
2023/06/29 08:10:05;;;;;;;6.43;2.08;;;;;;;26.75;34.99;98180.03;4403622;32;20099;-81
2023/06/29 08:12:32;;;;;;;4.40;1.98;;;;;;;26.78;36.23;98179.69;4402123;32;20102;-81
2023/06/29 08:14:59;;;;;;;6.72;2.30;;;;;;;27.18;34.75;98178.06;4398163;32;20094;-81
2023/06/29 08:17:29;;;;;;;5.60;2.12;;;;;;;27.50;34.76;98181.66;4395826;32;20082;-81
2023/06/29 08:19:56;;;;;;;5.68;2.17;;;;;;;27.06;35.14;98182.91;4401056;32;20066;-81
2023/06/29 08:22:23;;;;;;;3.85;2.00;;;;;;;27.25;35.13;98176.44;4402345;32;20114;-81
2023/06/29 08:24:51;;;;;;;4.43;1.95;;;;;;;28.02;33.54;98178.53;4402672;32;20063;-81
2023/06/29 08:27:19;;;;;;;4.72;1.95;;;;;;;28.31;33.68;98185.91;4404605;32;20063;-81
2023/06/29 08:29:50;;;;;;;6.35;2.30;;;;;;;28.57;32.87;98183.72;4392662;32;20782;-81
2023/06/29 08:32:16;;;;;;;5.22;1.90;;;;;;;28.24;33.54;98188.38;4402805;32;20086;-80
2023/06/29 08:34:44;;;;;;;5.57;1.60;;;;;;;28.27;32.93;98184.53;4400363;32;20441;-80
2023/06/29 08:37:10;;;;;;;7.10;2.20;;;;;;;28.03;32.93;98181.03;4395830;32;20675;-80
2023/06/29 08:39:37;;;;;;;4.10;2.00;;;;;;;28.88;32.27;98189.03;4381606;32;20114;-80
2023/06/29 08:42:05;;;;;;;6.82;2.10;;;;;;;29.56;31.28;98181.94;4396395;32;20141;-80
2023/06/29 08:44:34;;;;;;;4.20;1.85;;;;;;;28.23;32.23;98174.28;4396194;32;20091;-81
2023/06/29 08:47:01;;;;;;;5.75;2.00;;;;;;;28.69;32.93;98163.72;4395973;32;20415;-80
2023/06/29 08:49:29;;;;;;;4.22;2.05;;;;;;;28.21;33.68;98162.22;4395479;32;20113;-80
2023/06/29 08:51:58;;;;;;;4.68;2.25;;;;;;;28.49;33.67;98166.03;4382290;32;20135;-81
2023/06/29 08:54:31;;;;;;;6.12;2.10;;;;;;;29.25;32.75;98171.44;4395926;32;20141;-81
2023/06/29 08:57:02;;;;;;;7.35;1.95;;;;;;;30.17;31.50;98164.75;4395354;32;20151;-81
2023/06/29 08:59:29;;;;;;;4.22;1.87;;;;;;;29.98;31.89;98162.66;4395789;32;20161;-81
2023/06/29 09:01:58;;;;;;;5.22;2.20;;;;;;;29.75;31.37;98162.78;4383855;32;20144;-81
2023/06/29 09:04:25;;;;;;;3.85;1.87;;;;;;;28.84;31.74;98169.13;4381967;32;20121;-80
2023/06/29 09:06:55;;;;;;;4.60;2.05;;;;;;;29.79;30.88;98160.59;4398598;32;20099;-80
2023/06/29 09:09:30;;;;;;;5.40;2.30;;;;;;;29.56;31.39;98158.00;4399638;32;20090;-80
2023/06/29 09:12:03;;;;;;;4.50;2.25;;;;;;;28.45;33.97;98162.09;4401846;32;20160;-81
2023/06/29 09:14:32;;;;;;;5.68;2.50;;;;;;;28.23;34.49;98155.72;4388174;32;20094;-80
2023/06/29 09:17:01;;;;;;;6.82;2.55;;;;;;;28.80;33.72;98163.31;4384260;32;20129;-80
2023/06/29 09:19:30;;;;;;;5.60;2.20;;;;;;;28.98;33.30;98155.06;4396256;32;20428;-81
2023/06/29 09:21:58;;;;;;;3.08;1.98;;;;;;;29.24;32.51;98161.81;4396113;32;20086;-81
2023/06/29 09:24:29;;;;;;;6.82;2.20;;;;;;;29.53;31.69;98169.00;4396838;32;20086;-80
2023/06/29 09:26:56;;;;;;;6.87;2.12;;;;;;;30.21;32.32;98160.75;4400015;32;20077;-81
2023/06/29 09:29:23;;;;;;;5.78;2.12;;;;;;;30.06;31.33;98157.28;4401871;32;20085;-81
2023/06/29 09:31:56;;;;;;;5.65;2.10;;;;;;;30.82;29.78;98157.66;4398569;32;20112;-81
2023/06/29 09:34:26;;;;;;;9.85;2.17;;;;;;;30.92;29.69;98162.69;4400038;32;20086;-80
2023/06/29 09:36:53;;;;;;;5.32;2.12;;;;;;;30.38;31.18;98161.31;4405330;32;20105;-80
2023/06/29 09:39:21;;;;;;;4.47;2.00;;;;;;;30.73;31.11;98164.13;4392395;32;20106;-81
2023/06/29 09:41:50;;;;;;;4.80;2.20;;;;;;;30.45;31.52;98158.72;4406435;32;20112;-81
2023/06/29 09:44:19;;;;;;;5.87;2.00;;;;;;;30.68;30.95;98163.91;4400324;32;20105;-80
2023/06/29 09:46:50;;;;;;;5.18;1.90;;;;;;;29.98;31.33;98160.00;4397659;32;20081;-81
2023/06/29 09:49:23;;;;;;;6.50;2.08;;;;;;;28.85;32.68;98149.53;4401842;32;20437;-81
2023/06/29 09:52:02;;;;;;;5.65;2.50;;;;;;;29.69;32.27;98150.22;4399942;32;20510;-81
2023/06/29 09:54:33;;;;;;;6.05;2.33;;;;;;;30.50;30.49;98154.47;4385121;32;20099;-81
2023/06/29 09:57:04;;;;;;;5.80;2.10;;;;;;;30.86;30.99;98161.63;4398955;32;20066;-81
2023/06/29 09:59:31;;;;;;;6.68;2.03;;;;;;;31.29;30.99;98153.56;4386895;32;20514;-82
2023/06/29 10:01:58;;;;;;;2.90;1.80;;;;;;;28.90;32.47;98152.47;4397427;32;20070;-82
2023/06/29 10:04:25;;;;;;;4.55;2.10;;;;;;;28.38;33.33;98149.69;4404588;32;20109;-82
2023/06/29 10:07:05;;;;;;;4.03;2.05;;;;;;;29.23;32.33;98147.69;4397794;32;20099;-82
2023/06/29 10:09:37;;;;;;;6.30;2.25;;;;;;;29.03;32.54;98149.22;4394958;32;20137;-82
2023/06/29 10:12:05;;;;;;;3.65;1.92;;;;;;;29.44;31.18;98149.63;4395588;32;20152;-82
2023/06/29 10:14:41;;;;;;;3.83;2.00;;;;;;;29.59;31.78;98145.19;4395632;32;20441;-82
2023/06/29 10:17:11;;;;;;;5.68;1.90;;;;;;;30.29;31.62;98146.47;4394930;32;20086;-82
2023/06/29 10:19:42;;;;;;;5.30;2.37;;;;;;;30.42;31.62;98153.78;4381164;32;20165;-82
2023/06/29 10:22:12;;;;;;;4.00;2.10;;;;;;;28.61;33.02;98141.75;4381203;32;20114;-82
2023/06/29 10:24:52;;;;;;;6.15;2.10;;;;;;;28.59;34.53;98144.56;4394314;32;20090;-82
2023/06/29 10:27:21;;;;;;;6.78;2.08;;;;;;;27.91;35.05;98143.47;4381106;32;20125;-82
2023/06/29 10:29:50;;;;;;;4.75;2.03;;;;;;;29.89;31.74;98139.84;4394689;32;20109;-82
2023/06/29 10:32:39;;;;;;;7.60;2.20;;;;;;;31.08;30.16;98141.09;4394381;32;20112;-82
2023/06/29 10:35:13;;;;;;;5.20;2.10;;;;;;;31.17;30.67;98145.28;4394798;32;20505;-82
2023/06/29 10:37:48;;;;;;;4.70;2.00;;;;;;;29.67;31.37;98136.31;4394168;32;20178;-82
2023/06/29 10:40:20;;;;;;;4.35;2.10;;;;;;;29.44;31.91;98132.84;4394231;32;20118;-82
2023/06/29 10:42:50;;;;;;;4.62;2.00;;;;;;;30.08;30.92;98139.28;4394541;32;20090;-82
2023/06/29 10:45:20;;;;;;;4.70;2.20;;;;;;;29.30;32.66;98130.03;4393969;32;20161;-82
2023/06/29 10:47:56;;;;;;;4.97;2.22;;;;;;;29.57;32.57;98125.13;4394460;32;20070;-82
2023/06/29 10:50:31;;;;;;;4.95;2.30;;;;;;;30.97;30.80;98126.47;4394153;32;20118;-82
2023/06/29 10:52:59;;;;;;;6.40;2.12;;;;;;;31.00;30.53;98130.56;4383861;32;20167;-80
2023/06/29 10:55:30;;;;;;;5.57;2.30;;;;;;;30.91;30.22;98132.56;4398435;32;20106;-82
2023/06/29 10:58:11;;;;;;;5.50;2.40;;;;;;;30.45;31.61;98130.28;4382932;32;20098;-83
2023/06/29 11:00:39;;;;;;;5.65;2.45;;;;;;;30.39;31.76;98130.19;4395917;32;20607;-83
2023/06/29 11:03:08;;;;;;;5.57;2.28;;;;;;;30.51;32.19;98129.50;4397158;32;20137;-84
2023/06/29 11:05:35;;;;;;;5.65;2.20;;;;;;;30.44;31.38;98128.63;4383810;32;20098;-84
2023/06/29 11:08:02;;;;;;;5.65;2.00;;;;;;;30.84;30.21;98128.19;4398672;32;20055;-85
2023/06/29 11:10:29;;;;;;;5.05;2.33;;;;;;;30.44;30.97;98125.13;4386982;32;20067;-85
2023/06/29 11:12:56;;;;;;;5.12;2.17;;;;;;;31.87;28.46;98117.59;4397354;32;20158;-84
2023/06/29 11:15:23;;;;;;;4.62;2.40;;;;;;;31.63;28.86;98116.25;4387147;32;20118;-84
2023/06/29 11:17:51;;;;;;;5.25;2.47;;;;;;;30.43;31.37;98115.50;4399772;32;20087;-85
2023/06/29 11:20:19;;;;;;;5.57;2.35;;;;;;;28.68;32.91;98101.03;4397151;32;20121;-85
2023/06/29 11:22:47;;;;;;;5.50;2.20;;;;;;;30.10;31.92;98110.66;4396216;32;20132;-83
2023/06/29 11:25:15;;;;;;;4.93;2.10;;;;;;;30.71;31.26;98111.06;4382369;32;20176;-83
2023/06/29 11:27:43;;;;;;;8.18;2.40;;;;;;;30.98;30.55;98111.31;4395644;32;20074;-83
2023/06/29 11:30:11;;;;;;;4.30;2.05;;;;;;;31.32;29.50;98106.03;4382434;32;20107;-84
2023/06/29 11:32:38;;;;;;;5.82;2.35;;;;;;;32.10;29.26;98103.91;4399214;32;20136;-83
2023/06/29 11:35:10;;;;;;;5.07;2.10;;;;;;;31.37;29.15;98097.44;4395989;32;20097;-84
2023/06/29 11:37:40;;;;;;;4.82;2.08;;;;;;;30.31;30.17;98103.72;4382508;32;20083;-83
2023/06/29 11:40:17;;;;;;;4.20;1.87;;;;;;;31.68;28.82;98099.62;4397005;32;20472;-84